Tyler Pounds Regional Airport
KTYR : now visible

Airfield :











YOU CAN JOIN US ON...

 
LOGIN :

Register | Disclaimer

   EN    FR    IT 

 









Legend :    VFR   Marginal VFR   IFR   Intensive IFR   Very Intensive IFR
Visi :
Ceiling :
>= 8 km
>= 3000ft
5 to 8 km
1000 to 3000 ft
1500m to 5 km
500 to 1000 ft
800 to 1500m
200 to 500 ft
< 800m
< 200 ft
Symbols :   Thunderstorms  Fog  Heavy snow  Heavy precipitations  Wind > 20 kt






- Airport Elevation : 544 ft
- IATA code : TYR


KTYR - Tyler Pounds Regional

CURRENT METAR :
  • 101453Z 01007KT 3SM -RA BR OVC005 04/02 A3025 RMK AO2 SLP244 P0007 60022 T00390022 53018 $

EXPIRED METARs :
  • 101353Z 35011KT 2SM -RA BR OVC005 04/03 A3020 RMK AO2 SLP224 P0009 T00390028 $
  • 101348Z 35009KT 2SM RA BR BKN005 OVC070 04/03 A3021 RMK AO2 P0008 $
  • 101253Z 02008KT 9SM RA BKN006 OVC045 04/03 A3020 RMK AO2 RAB13 SLP225 P0006 T00440028 $

TAF KTYR
Valid from the 10 at 12:00 until the 11 at 12:00 UTC


101141Z 1012/1112 02010KT 6SM -RA BR SCT011 OVC050
TEMPO 1012/1015 4SM -RA BR OVC010
FM101500 02010KT 5SM -RA BR OVC010
FM101900 02009KT 6SM -RA BR OVC015
FM102100 02008KT P6SM OVC015
FM110000 02007KT P6SM SCT025 BKN250
FM110600 02004KT P6SM SKC



MET'MAP, your aeronautical weather chart ! - Copyright ORBIFLY December 2007 - Disclaimer

ORBIFLY MET'MAP TEAM :

Programming & Development : Alexandra Zaïnal
Concept & original design : Baudouin d'Aumeries
Assistance for programming : Marc-Olivier Méhu
Technical & hardware support : Manuel Goepfert

Contact : metmap@orbifly.com




SOURCES & CREDITS :

   NOAA       Earth
Advisory